George S. — A8TJ9 — position and weather

sailwx.info

Track history (hours):
 
Tides and Currents Weather Stations Pressure Air Temp Water Temp Dewpoint Dewpoint Depression Visibility Wind Speed Wind Dir Waves Ship Positions

George S.

Last reported at 2018-Jan-22 19:39 UTC. Time now 2018-Jan-23 10:18 UTC.
Position N 48°54' W 005°47'.

Length 274 m; draft 15.5 m.

Type: Tanker. MMSI: 636014372.

Date/timePositionNaut miles runAvg speedWind from/ knotsBaromVisibWave heightAir tempDewpointWater temp
2018-Jan-22 19:39N 48°54' W 005°47'69 9.9
2018-Jan-22 12:39N 49°32' W 004°18'2111.1
2018-Jan-22 10:44N 49°43' W 003°50'210.3
2018-Jan-22 10:30N 49°44' W 003°47'610.3
2018-Jan-22 09:56N 49°47' W 003°39'510.1
2018-Jan-22 09:28N 49°50' W 003°33'510.1
2018-Jan-22 09:00N 49°52' W 003°26'5 9.9
2018-Jan-22 08:30N 49°54' W 003°19'510.6
2018-Jan-22 08:00N 49°56' W 003°11'612.6
2018-Jan-22 07:31N 49°57' W 003°02'713.3
2018-Jan-22 07:01N 49°59' W 002°52'714.0
2018-Jan-22 06:31N 50°02' W 002°42'1014.9
2018-Jan-22 05:50N 50°04' W 002°27'5515.6
2018-Jan-22 02:18N 50°20' W 001°04'2611.6
2018-Jan-22 00:02N 50°27' W 000°24'010.9
2018-Jan-22 00:00N 50°27' W 000°24'510.6
2018-Jan-21 23:30N 50°28' W 000°16'510.3
2018-Jan-21 23:00N 50°29' W 000°08'5 9.9
2018-Jan-21 22:30N 50°31' W 000°00'510.3
2018-Jan-21 22:00N 50°32' E 000°07'510.8
2018-Jan-21 21:30N 50°34' E 000°15'611.6
2018-Jan-21 21:00N 50°36' E 000°24'612.2
2018-Jan-21 20:30N 50°37' E 000°34'612.9
2018-Jan-21 20:00N 50°40' E 000°42'713.4
2018-Jan-21 19:30N 50°45' E 000°50'713.4
2018-Jan-21 19:00N 50°49' E 000°59'713.1
2018-Jan-21 18:30N 50°53' E 001°07'612.7
2018-Jan-21 18:00N 50°57' E 001°14'612.0
2018-Jan-21 17:30N 51°01' E 001°21'611.5
2018-Jan-21 17:00N 51°05' E 001°28'510.6
2018-Jan-21 16:30N 51°08' E 001°35'510.2
2018-Jan-21 16:01N 51°11' E 001°41'510.2
2018-Jan-21 15:30N 51°15' E 001°47'510.4
2018-Jan-21 15:01N 51°19' E 001°51'510.8
2018-Jan-21 14:30N 51°25' E 001°54'510.7
2018-Jan-21 14:00N 51°29' E 001°59'611.5
2018-Jan-21 13:30N 51°33' E 002°05'611.7
2018-Jan-21 13:00N 51°38' E 002°11'612.0
2018-Jan-21 12:30N 51°42' E 002°18'307 9.0
2018-Jan-20 02:24N 56°13' W 001°46'512.4
2018-Jan-20 02:00N 56°13' W 001°55'612.6
2018-Jan-20 01:30N 56°11' W 002°06'612.7
2018-Jan-20 01:00N 56°10' W 002°17'612.6
2018-Jan-20 00:30N 56°09' W 002°29'612.3
2018-Jan-20 00:00N 56°08' W 002°39'612.0
2018-Jan-19 23:30N 56°07' W 002°50'510.8
2018-Jan-19 23:00N 56°04' W 002°58'4 8.2
2018-Jan-19 22:30N 56°03' W 003°06'3 6.3
2018-Jan-19 22:00N 56°03' W 003°11'4 8.0
2018-Jan-19 21:30N 56°01' W 003°18'2 0.1
2018-Jan-18 12:04N 56°00' W 003°22'0 0.0
2018-Jan-18 11:58N 56°00' W 003°22'0 0.0
2018-Jan-18 11:16N 56°00' W 003°22'0 0.0
2018-Jan-18 10:55N 56°00' W 003°22'0 0.0
2018-Jan-18 10:30N 56°00' W 003°22'1 1.3
2018-Jan-18 10:00N 56°01' W 003°21'3 5.5
2018-Jan-18 09:30N 56°02' W 003°16'510.7
2018-Jan-18 09:00N 56°04' W 003°07'5 9.6
2018-Jan-18 08:31N 56°04' W 002°59'2 3.3
2018-Jan-18 08:01N 56°04' W 002°56'1 1.1
2018-Jan-18 07:29N 56°04' W 002°55'0 0.1
2018-Jan-18 06:59N 56°04' W 002°55'0 0.0
2018-Jan-18 06:29N 56°04' W 002°55'0 0.0
2018-Jan-18 05:59N 56°04' W 002°55'0 0.0
2018-Jan-18 05:29N 56°04' W 002°55'0 0.0
2018-Jan-18 04:59N 56°04' W 002°55'0 0.1
2018-Jan-18 04:29N 56°04' W 002°55'0 0.0
2018-Jan-18 03:59N 56°04' W 002°55'0 0.0
2018-Jan-18 03:29N 56°04' W 002°55'0 0.1
2018-Jan-18 02:59N 56°03' W 002°55'0 0.1
2018-Jan-18 02:29N 56°03' W 002°55'0 0.1
2018-Jan-18 01:59N 56°03' W 002°55'0 0.1
2018-Jan-18 01:29N 56°03' W 002°55'0 0.0
2018-Jan-18 00:59N 56°03' W 002°55'0 0.1
2018-Jan-17 23:59N 56°03' W 002°55'0 0.2
2018-Jan-17 23:56N 56°03' W 002°55'  
Track history (hours):
 
Tides and Currents Weather Stations Pressure Air Temp Water Temp Dewpoint Dewpoint Depression Visibility Wind Speed Wind Dir Waves Ship Positions

George S.

Last reported at 2018-Jan-22 19:39 UTC. Time now 2018-Jan-23 10:18 UTC.
Position N 48°54' W 005°47'.

Length 274 m; draft 15.5 m.

Type: Tanker. MMSI: 636014372.

Date/timePositionNaut miles runAvg speedWind from/ knotsBaromVisibWave heightAir tempDewpointWater temp
2018-Jan-22 19:39N 48°54' W 005°47'69 9.9
2018-Jan-22 12:39N 49°32' W 004°18'2111.1
2018-Jan-22 10:44N 49°43' W 003°50'210.3
2018-Jan-22 10:30N 49°44' W 003°47'610.3
2018-Jan-22 09:56N 49°47' W 003°39'510.1
2018-Jan-22 09:28N 49°50' W 003°33'510.1
2018-Jan-22 09:00N 49°52' W 003°26'5 9.9
2018-Jan-22 08:30N 49°54' W 003°19'510.6
2018-Jan-22 08:00N 49°56' W 003°11'612.6
2018-Jan-22 07:31N 49°57' W 003°02'713.3
2018-Jan-22 07:01N 49°59' W 002°52'714.0
2018-Jan-22 06:31N 50°02' W 002°42'1014.9
2018-Jan-22 05:50N 50°04' W 002°27'5515.6
2018-Jan-22 02:18N 50°20' W 001°04'2611.6
2018-Jan-22 00:02N 50°27' W 000°24'010.9
2018-Jan-22 00:00N 50°27' W 000°24'510.6
2018-Jan-21 23:30N 50°28' W 000°16'510.3
2018-Jan-21 23:00N 50°29' W 000°08'5 9.9
2018-Jan-21 22:30N 50°31' W 000°00'510.3
2018-Jan-21 22:00N 50°32' E 000°07'510.8
2018-Jan-21 21:30N 50°34' E 000°15'611.6
2018-Jan-21 21:00N 50°36' E 000°24'612.2
2018-Jan-21 20:30N 50°37' E 000°34'612.9
2018-Jan-21 20:00N 50°40' E 000°42'713.4
2018-Jan-21 19:30N 50°45' E 000°50'713.4
2018-Jan-21 19:00N 50°49' E 000°59'713.1
2018-Jan-21 18:30N 50°53' E 001°07'612.7
2018-Jan-21 18:00N 50°57' E 001°14'612.0
2018-Jan-21 17:30N 51°01' E 001°21'611.5
2018-Jan-21 17:00N 51°05' E 001°28'510.6
2018-Jan-21 16:30N 51°08' E 001°35'510.2
2018-Jan-21 16:01N 51°11' E 001°41'510.2
2018-Jan-21 15:30N 51°15' E 001°47'510.4
2018-Jan-21 15:01N 51°19' E 001°51'510.8
2018-Jan-21 14:30N 51°25' E 001°54'510.7
2018-Jan-21 14:00N 51°29' E 001°59'611.5
2018-Jan-21 13:30N 51°33' E 002°05'611.7
2018-Jan-21 13:00N 51°38' E 002°11'612.0
2018-Jan-21 12:30N 51°42' E 002°18'307 9.0
2018-Jan-20 02:24N 56°13' W 001°46'512.4
2018-Jan-20 02:00N 56°13' W 001°55'612.6
2018-Jan-20 01:30N 56°11' W 002°06'612.7
2018-Jan-20 01:00N 56°10' W 002°17'612.6
2018-Jan-20 00:30N 56°09' W 002°29'612.3
2018-Jan-20 00:00N 56°08' W 002°39'612.0
2018-Jan-19 23:30N 56°07' W 002°50'510.8
2018-Jan-19 23:00N 56°04' W 002°58'4 8.2
2018-Jan-19 22:30N 56°03' W 003°06'3 6.3
2018-Jan-19 22:00N 56°03' W 003°11'4 8.0
2018-Jan-19 21:30N 56°01' W 003°18'2 0.1
2018-Jan-18 12:04N 56°00' W 003°22'0 0.0
2018-Jan-18 11:58N 56°00' W 003°22'0 0.0
2018-Jan-18 11:16N 56°00' W 003°22'0 0.0
2018-Jan-18 10:55N 56°00' W 003°22'0 0.0
2018-Jan-18 10:30N 56°00' W 003°22'1 1.3
2018-Jan-18 10:00N 56°01' W 003°21'3 5.5
2018-Jan-18 09:30N 56°02' W 003°16'510.7
2018-Jan-18 09:00N 56°04' W 003°07'5 9.6
2018-Jan-18 08:31N 56°04' W 002°59'2 3.3
2018-Jan-18 08:01N 56°04' W 002°56'1 1.1
2018-Jan-18 07:29N 56°04' W 002°55'0 0.1
2018-Jan-18 06:59N 56°04' W 002°55'0 0.0
2018-Jan-18 06:29N 56°04' W 002°55'0 0.0
2018-Jan-18 05:59N 56°04' W 002°55'0 0.0
2018-Jan-18 05:29N 56°04' W 002°55'0 0.0
2018-Jan-18 04:59N 56°04' W 002°55'0 0.1
2018-Jan-18 04:29N 56°04' W 002°55'0 0.0
2018-Jan-18 03:59N 56°04' W 002°55'0 0.0
2018-Jan-18 03:29N 56°04' W 002°55'0 0.1
2018-Jan-18 02:59N 56°03' W 002°55'0 0.1
2018-Jan-18 02:29N 56°03' W 002°55'0 0.1
2018-Jan-18 01:59N 56°03' W 002°55'0 0.1
2018-Jan-18 01:29N 56°03' W 002°55'0 0.0
2018-Jan-18 00:59N 56°03' W 002°55'0 0.1
2018-Jan-17 23:59N 56°03' W 002°55'0 0.2
2018-Jan-17 23:56N 56°03' W 002°55'  

Dump ship's entire track history